createdAt,value
2018-12-03T00:01:26.220Z,7.60
2018-12-03T00:03:59.483Z,7.60
2018-12-03T00:06:29.544Z,7.70
2018-12-03T00:08:59.415Z,7.70
2018-12-03T00:11:29.539Z,7.70
2018-12-03T00:14:09.002Z,7.70
2018-12-03T00:16:41.336Z,7.70
2018-12-03T00:19:11.362Z,7.70
2018-12-03T00:21:46.832Z,7.80
2018-12-03T00:24:29.081Z,7.80
2018-12-03T00:35:29.243Z,7.90
2018-12-03T00:40:40.239Z,7.90
2018-12-03T01:37:22.501Z,7.90
2018-12-03T02:28:22.313Z,7.90
2018-12-03T02:34:00.190Z,7.90
2018-12-03T02:42:52.416Z,7.90
2018-12-03T02:45:22.839Z,7.90
2018-12-03T02:47:55.497Z,7.90
2018-12-03T03:05:57.247Z,7.90
2018-12-03T03:08:34.507Z,7.90
2018-12-03T03:11:04.367Z,7.90
2018-12-03T03:25:22.104Z,7.90
2018-12-03T03:28:00.076Z,7.90
2018-12-03T03:30:44.087Z,8.00
2018-12-03T03:33:35.292Z,7.90
2018-12-03T03:36:15.168Z,8.00
2018-12-03T03:38:51.643Z,8.00
2018-12-03T03:41:21.440Z,7.90
2018-12-03T03:43:51.853Z,7.90
2018-12-03T03:46:24.316Z,7.90
2018-12-03T03:48:57.866Z,7.90
2018-12-03T03:51:37.276Z,7.90
2018-12-03T03:54:08.472Z,7.90
2018-12-03T03:56:49.709Z,7.90
2018-12-03T04:01:19.729Z,7.90
2018-12-03T04:12:35.290Z,7.80
2018-12-03T04:18:28.555Z,7.80
2018-12-03T04:21:01.287Z,7.80
2018-12-03T04:32:34.453Z,7.80
2018-12-03T04:40:49.049Z,7.80
2018-12-03T04:43:27.845Z,7.80
2018-12-03T04:46:03.601Z,7.90
2018-12-03T04:48:43.597Z,7.80
2018-12-03T04:51:20.743Z,7.80
2018-12-03T04:53:53.486Z,7.90
2018-12-03T04:56:25.216Z,7.80
2018-12-03T04:58:54.990Z,7.90
2018-12-03T05:01:25.489Z,7.90
2018-12-03T05:03:54.518Z,7.90
2018-12-03T05:06:23.451Z,7.90
2018-12-03T05:08:52.347Z,7.90
2018-12-03T05:11:21.352Z,7.90
2018-12-03T05:13:50.383Z,7.90
2018-12-03T05:16:19.171Z,7.90
2018-12-03T05:18:48.163Z,7.90
2018-12-03T05:21:17.199Z,7.90
2018-12-03T05:23:46.033Z,7.90
2018-12-03T05:26:14.929Z,7.90
2018-12-03T05:28:44.122Z,7.90
2018-12-03T05:31:13.064Z,7.90
2018-12-03T05:33:41.907Z,7.90
2018-12-03T05:36:10.636Z,7.90
2018-12-03T05:38:39.485Z,7.90
2018-12-03T05:41:08.286Z,7.90
2018-12-03T05:43:37.224Z,7.90
2018-12-03T05:46:06.055Z,7.90
2018-12-03T05:48:34.868Z,8.00
2018-12-03T05:51:03.932Z,8.00
2018-12-03T05:53:32.771Z,8.00
2018-12-03T05:56:01.616Z,8.00
2018-12-03T05:58:30.411Z,8.00
2018-12-03T06:00:59.439Z,8.00
2018-12-03T06:03:28.131Z,8.00
2018-12-03T06:05:56.979Z,8.00
2018-12-03T06:08:25.787Z,8.00
2018-12-03T06:10:54.510Z,8.10
2018-12-03T06:13:23.437Z,8.10
2018-12-03T06:15:52.256Z,8.10
2018-12-03T06:18:21.142Z,8.10
2018-12-03T06:20:50.076Z,8.10
2018-12-03T06:23:19.095Z,8.20
2018-12-03T06:25:48.151Z,8.20
2018-12-03T06:28:17.111Z,8.20
2018-12-03T06:30:46.622Z,8.20
2018-12-03T06:33:15.482Z,8.30
2018-12-03T06:35:44.774Z,8.30
2018-12-03T06:38:15.510Z,8.30
2018-12-03T06:40:43.366Z,8.30
2018-12-03T06:43:12.517Z,8.30
2018-12-03T06:45:42.176Z,8.40
2018-12-03T06:48:13.565Z,8.40
2018-12-03T06:50:42.929Z,8.40
2018-12-03T06:53:11.806Z,8.50
2018-12-03T06:55:41.030Z,8.50
2018-12-03T06:58:10.463Z,8.60
2018-12-03T07:00:39.284Z,8.60
2018-12-03T07:03:09.115Z,8.60
2018-12-03T07:05:41.220Z,8.70
2018-12-03T07:08:11.353Z,8.70
2018-12-03T07:10:41.699Z,8.70
2018-12-03T07:13:12.587Z,8.80
2018-12-03T07:15:42.951Z,8.80
2018-12-03T07:18:12.577Z,8.90
2018-12-03T07:20:41.311Z,8.90
2018-12-03T07:23:10.187Z,8.90
2018-12-03T07:25:39.050Z,9.00
2018-12-03T07:28:07.877Z,9.00
2018-12-03T07:30:40.634Z,9.00
2018-12-03T07:33:09.445Z,9.00
2018-12-03T07:35:38.128Z,9.10
2018-12-03T07:38:06.901Z,9.10
2018-12-03T07:40:35.623Z,9.10
2018-12-03T07:43:04.456Z,9.10
2018-12-03T07:45:33.040Z,9.20
2018-12-03T07:48:01.825Z,9.20
2018-12-03T07:50:30.631Z,9.20
2018-12-03T07:52:59.389Z,9.20
2018-12-03T07:55:28.298Z,9.20
2018-12-03T07:57:59.749Z,9.30
2018-12-03T08:00:32.600Z,9.30
2018-12-03T08:03:01.354Z,9.30
2018-12-03T08:05:30.133Z,9.30
2018-12-03T08:07:58.943Z,9.30
2018-12-03T08:10:27.737Z,9.40
2018-12-03T08:12:59.457Z,9.40
2018-12-03T08:15:29.252Z,9.40
2018-12-03T08:18:04.315Z,9.40
2018-12-03T08:20:46.058Z,9.40
2018-12-03T08:23:19.639Z,9.50
2018-12-03T08:25:48.515Z,9.50
2018-12-03T08:28:17.350Z,9.50
2018-12-03T08:30:46.183Z,9.50
2018-12-03T08:33:15.391Z,9.50
2018-12-03T08:35:44.396Z,9.50
2018-12-03T08:38:15.191Z,9.60
2018-12-03T08:40:45.208Z,9.60
2018-12-03T08:43:14.227Z,9.60
2018-12-03T08:45:43.164Z,9.60
2018-12-03T08:48:13.600Z,9.70
2018-12-03T08:50:44.799Z,9.70
2018-12-03T08:53:15.214Z,9.70
2018-12-03T08:55:45.091Z,9.80
2018-12-03T08:58:15.987Z,9.80
2018-12-03T09:00:46.982Z,9.80
2018-12-03T09:03:23.263Z,9.80
2018-12-03T09:05:52.810Z,9.80
2018-12-03T09:08:23.053Z,9.80
2018-12-03T09:10:58.942Z,9.80
2018-12-03T09:13:31.813Z,9.80
2018-12-03T09:16:06.668Z,9.80
2018-12-03T09:18:40.163Z,9.90
2018-12-03T09:21:17.665Z,9.90
2018-12-03T09:23:48.451Z,9.90
2018-12-03T09:26:24.425Z,9.90
2018-12-03T09:28:56.727Z,9.90
2018-12-03T09:31:28.900Z,9.90
2018-12-03T09:34:02.241Z,9.90
2018-12-03T09:36:31.989Z,9.90
2018-12-03T09:39:12.513Z,9.90
2018-12-03T09:41:43.653Z,9.90
2018-12-03T09:44:26.001Z,9.90
2018-12-03T09:47:08.152Z,9.90
2018-12-03T09:49:47.707Z,9.90
2018-12-03T09:52:17.009Z,9.90
2018-12-03T09:54:56.242Z,9.90
2018-12-03T09:57:34.252Z,9.90
2018-12-03T10:00:22.747Z,9.80
2018-12-03T10:05:46.852Z,9.80
2018-12-03T10:08:30.409Z,9.80
2018-12-03T10:11:05.067Z,9.80
2018-12-03T10:13:41.084Z,9.80
2018-12-03T10:16:15.784Z,9.80
2018-12-03T10:18:48.582Z,9.80
2018-12-03T10:21:17.606Z,9.80
2018-12-03T10:23:46.623Z,9.70
2018-12-03T10:26:15.496Z,9.70
2018-12-03T10:28:44.272Z,9.70
2018-12-03T10:31:14.112Z,9.70
2018-12-03T10:33:42.746Z,9.70
2018-12-03T10:36:11.735Z,9.70
2018-12-03T10:38:42.427Z,9.70
2018-12-03T10:41:16.008Z,9.70
2018-12-03T10:43:44.675Z,9.70
2018-12-03T10:46:13.578Z,9.70
2018-12-03T10:48:42.332Z,9.80
2018-12-03T10:51:14.927Z,9.80
2018-12-03T10:53:43.903Z,9.90
2018-12-03T10:56:12.752Z,9.90
2018-12-03T10:58:43.454Z,9.90
2018-12-03T11:01:17.444Z,10.00
2018-12-03T11:03:51.468Z,10.00
2018-12-03T11:06:21.443Z,10.00
2018-12-03T11:08:50.325Z,10.00
2018-12-03T11:11:19.276Z,10.00
2018-12-03T11:13:48.302Z,10.00
2018-12-03T11:16:25.194Z,10.00
2018-12-03T11:18:55.436Z,10.00
2018-12-03T11:21:24.699Z,10.10
2018-12-03T11:23:53.762Z,10.10
2018-12-03T11:26:23.490Z,10.20
2018-12-03T11:28:54.801Z,10.20
2018-12-03T11:31:27.696Z,10.20
2018-12-03T11:34:01.878Z,10.30
2018-12-03T11:36:39.787Z,10.30
2018-12-03T11:39:22.213Z,10.30
2018-12-03T11:42:00.420Z,10.30
2018-12-03T11:44:29.521Z,10.30
2018-12-03T11:47:16.210Z,10.30
2018-12-03T11:49:48.411Z,10.30
2018-12-03T11:52:22.234Z,10.30
2018-12-03T12:03:26.959Z,10.20
2018-12-03T12:08:56.947Z,10.10
2018-12-03T12:11:28.650Z,10.10
2018-12-03T12:14:14.408Z,10.10
2018-12-03T12:16:48.337Z,10.20
2018-12-03T12:19:31.158Z,10.20
2018-12-03T12:25:28.977Z,10.10
2018-12-03T12:31:00.203Z,10.10
2018-12-03T12:33:33.825Z,10.10
2018-12-03T12:36:18.788Z,10.10
2018-12-03T12:40:48.051Z,10.20
2018-12-03T12:43:42.587Z,10.20
2018-12-03T12:49:23.889Z,10.10
2018-12-03T12:51:58.642Z,10.10
2018-12-03T12:54:53.123Z,10.20
2018-12-03T12:59:19.135Z,10.20
2018-12-03T13:01:49.762Z,10.10
2018-12-03T13:11:48.651Z,10.00
2018-12-03T13:14:19.802Z,9.90
2018-12-03T13:16:53.329Z,9.90
2018-12-03T13:19:23.616Z,9.90
2018-12-03T13:21:52.554Z,9.90
2018-12-03T13:24:29.717Z,9.90
2018-12-03T13:27:01.508Z,9.90
2018-12-03T13:29:32.849Z,9.90
2018-12-03T13:35:05.699Z,9.90
2018-12-03T13:37:34.733Z,9.90
2018-12-03T13:40:08.735Z,9.90
2018-12-03T13:42:37.891Z,9.90
2018-12-03T13:48:08.859Z,9.90
2018-12-03T13:50:40.447Z,9.90
2018-12-03T13:53:16.750Z,9.90
2018-12-03T13:56:11.860Z,9.90
2018-12-03T13:58:45.733Z,9.90
2018-12-03T14:01:21.016Z,9.90
2018-12-03T14:04:07.391Z,9.80
2018-12-03T14:06:45.731Z,9.80
2018-12-03T14:10:28.186Z,9.80
2018-12-03T14:13:10.093Z,9.80
2018-12-03T14:19:26.444Z,9.80
2018-12-03T14:22:18.828Z,9.80
2018-12-03T15:03:00.547Z,9.80
2018-12-03T15:08:29.505Z,9.30
2018-12-03T15:11:01.391Z,9.30
2018-12-03T15:16:41.270Z,9.30
2018-12-03T15:22:08.756Z,9.30
2018-12-03T15:24:47.559Z,9.30
2018-12-03T15:30:52.547Z,9.30
2018-12-03T15:33:24.077Z,9.30
2018-12-03T15:35:54.827Z,9.30
2018-12-03T15:38:26.618Z,9.20
2018-12-03T15:41:03.291Z,9.20
2018-12-03T15:43:32.964Z,9.10
2018-12-03T15:46:20.829Z,9.10
2018-12-03T15:48:54.966Z,9.10
2018-12-03T15:51:25.065Z,9.10
2018-12-03T15:54:03.319Z,9.00
2018-12-03T15:56:33.403Z,9.00
2018-12-03T15:59:04.847Z,8.90
2018-12-03T16:04:43.571Z,8.90
2018-12-03T16:07:13.548Z,8.90
2018-12-03T16:09:44.527Z,8.90
2018-12-03T16:12:14.284Z,8.90
2018-12-03T16:14:48.993Z,8.90
2018-12-03T16:17:20.254Z,9.00
2018-12-03T16:19:49.047Z,9.00
2018-12-03T16:22:18.611Z,9.00
2018-12-03T16:24:53.195Z,9.00
2018-12-03T16:27:22.987Z,9.00
2018-12-03T16:29:53.386Z,9.00
2018-12-03T16:32:25.714Z,9.10
2018-12-03T16:34:56.281Z,9.10
2018-12-03T16:37:25.807Z,9.10
2018-12-03T16:39:54.917Z,9.10
2018-12-03T16:42:24.076Z,9.10
2018-12-03T16:44:53.305Z,9.10
2018-12-03T16:47:22.479Z,9.10
2018-12-03T16:49:52.648Z,9.20
2018-12-03T16:52:22.331Z,9.20
2018-12-03T16:54:52.093Z,9.20
2018-12-03T16:57:23.886Z,9.10
2018-12-03T16:59:53.905Z,9.10
2018-12-03T17:02:24.812Z,9.10
2018-12-03T17:04:54.516Z,9.10
2018-12-03T17:07:25.651Z,9.10
2018-12-03T17:09:56.192Z,9.10
2018-12-03T17:12:30.923Z,9.10
2018-12-03T17:15:03.504Z,9.10
2018-12-03T17:17:34.830Z,9.10
2018-12-03T17:20:10.192Z,9.10
2018-12-03T17:22:47.484Z,9.20
2018-12-03T17:25:19.525Z,9.20
2018-12-03T17:27:51.349Z,9.20
2018-12-03T17:30:23.065Z,9.20
2018-12-03T17:32:52.756Z,9.20
2018-12-03T17:35:23.279Z,9.20
2018-12-03T17:37:53.017Z,9.20
2018-12-03T17:40:27.285Z,9.20
2018-12-03T17:42:57.085Z,9.20
2018-12-03T17:45:49.873Z,9.20
2018-12-03T17:48:24.095Z,9.20
2018-12-03T17:51:08.505Z,9.20
2018-12-03T17:53:38.688Z,9.10
2018-12-03T17:56:09.835Z,9.10
2018-12-03T17:58:41.693Z,9.10
2018-12-03T18:01:15.919Z,9.10
2018-12-03T18:03:45.526Z,9.10
2018-12-03T18:06:17.135Z,9.10
2018-12-03T18:08:45.013Z,9.10
2018-12-03T18:16:18.063Z,9.00
2018-12-03T18:18:55.279Z,9.00
2018-12-03T18:21:29.180Z,9.00
2018-12-03T18:24:02.057Z,9.00
2018-12-03T18:26:38.292Z,9.00
2018-12-03T18:29:16.690Z,9.00
2018-12-03T18:32:03.173Z,9.00
2018-12-03T18:34:38.326Z,9.00
2018-12-03T18:45:49.297Z,9.10
2018-12-03T18:51:40.994Z,9.10
2018-12-03T18:59:50.531Z,9.00
2018-12-03T19:02:44.372Z,9.00
2018-12-03T19:05:26.803Z,9.00
2018-12-03T19:08:04.918Z,9.00
2018-12-03T19:10:51.149Z,9.00
2018-12-03T19:13:46.524Z,9.00
2018-12-03T19:19:57.772Z,9.00
2018-12-03T19:22:45.055Z,9.00
2018-12-03T19:25:21.899Z,9.00
2018-12-03T19:43:37.185Z,8.70
2018-12-03T19:49:27.433Z,8.50
2018-12-03T20:13:20.216Z,8.40
